Time;durP1;ratioP1;P1;durP2;ratioP2;P2;SDS_P1;SDS_P2;PMS_P1;PMS_P2;Temp;Humidity;BMP_temperature;BMP_pressure;BME280_temperature;BME280_humidity;BME280_pressure;Samples;Min_cycle;Max_cycle;Signal;HPM_P1;HPM_P2
2024/01/17 00:00:54;;;;;;;86.80;51.43;;;;;;;;;;5055596;28;20450;-60
2024/01/17 00:03:20;;;;;;;87.30;50.33;;;;;;;;;;5055161;28;20486;-59
2024/01/17 00:05:47;;;;;;;85.83;51.97;;;;;;;;;;5055492;28;20150;-59
2024/01/17 00:08:13;;;;;;;80.37;50.80;;;;;;;;;;5055451;28;20070;-59
2024/01/17 00:10:39;;;;;;;82.50;50.47;;;;;;;;;;5055338;28;20052;-59
2024/01/17 00:13:05;;;;;;;83.43;50.00;;;;;;;;;;5053565;28;20563;-59
2024/01/17 00:15:31;;;;;;;81.53;49.20;;;;;;;;;;5050321;28;20051;-59
2024/01/17 00:17:57;;;;;;;81.43;50.77;;;;;;;;;;5053717;28;20471;-59
2024/01/17 00:20:23;;;;;;;81.57;50.10;;;;;;;;;;5054385;28;20102;-58
2024/01/17 00:22:49;;;;;;;85.63;50.43;;;;;;;;;;5054996;28;20452;-59
2024/01/17 00:25:17;;;;;;;80.47;51.10;;;;;;;;;;5053932;28;20032;-59
2024/01/17 00:27:43;;;;;;;83.23;49.47;;;;;;;;;;5055120;28;20033;-59
2024/01/17 00:30:09;;;;;;;80.50;50.00;;;;;;;;;;5054973;28;20025;-59
2024/01/17 00:32:35;;;;;;;80.63;50.20;;;;;;;;;;5054734;28;20033;-59
2024/01/17 00:35:02;;;;;;;85.70;50.47;;;;;;;;;;5054791;28;20116;-59
2024/01/17 00:37:28;;;;;;;80.43;50.00;;;;;;;;;;5053389;28;20112;-59
2024/01/17 00:39:54;;;;;;;81.17;51.23;;;;;;;;;;5054457;28;20056;-58
2024/01/17 00:42:20;;;;;;;76.13;48.93;;;;;;;;;;5054357;28;20048;-59
2024/01/17 00:44:46;;;;;;;85.47;52.20;;;;;;;;;;5054870;28;20025;-58
2024/01/17 00:47:13;;;;;;;76.43;49.33;;;;;;;;;;5054752;28;20478;-59
2024/01/17 00:49:41;;;;;;;76.87;48.00;;;;;;;;;;5053070;28;20025;-59
2024/01/17 00:52:07;;;;;;;79.87;49.70;;;;;;;;;;5044898;28;20090;-58
2024/01/17 00:54:33;;;;;;;83.30;50.17;;;;;;;;;;5034734;28;20036;-59
2024/01/17 00:57:00;;;;;;;86.23;54.30;;;;;;;;;;5051932;28;20025;-57
2024/01/17 00:59:25;;;;;;;84.47;51.60;;;;;;;;;;5054438;28;20206;-60
2024/01/17 01:01:51;;;;;;;85.50;52.10;;;;;;;;;;5054465;28;20474;-59
2024/01/17 01:04:17;;;;;;;85.67;51.87;;;;;;;;;;5054055;28;20033;-59
2024/01/17 01:06:43;;;;;;;87.57;51.07;;;;;;;;;;5036689;28;20071;-59
2024/01/17 01:09:10;;;;;;;84.03;52.03;;;;;;;;;;5045868;28;20152;-58
2024/01/17 01:11:36;;;;;;;88.50;51.93;;;;;;;;;;5041114;28;20029;-59
2024/01/17 01:14:03;;;;;;;81.93;50.43;;;;;;;;;;5040188;28;20135;-59
2024/01/17 01:16:29;;;;;;;85.90;52.13;;;;;;;;;;5052361;28;20124;-59
2024/01/17 01:18:55;;;;;;;85.77;52.30;;;;;;;;;;5054070;28;20082;-59
2024/01/17 01:21:21;;;;;;;91.30;52.33;;;;;;;;;;5053868;28;20390;-59
2024/01/17 01:23:47;;;;;;;86.23;53.80;;;;;;;;;;5054136;28;20112;-58
2024/01/17 01:26:18;;;;;;;86.33;53.13;;;;;;;;;;5052423;28;20033;-59
2024/01/17 01:28:44;;;;;;;88.40;52.20;;;;;;;;;;5053792;28;20048;-59
2024/01/17 01:31:10;;;;;;;83.23;51.40;;;;;;;;;;5053756;28;20029;-57
2024/01/17 01:33:36;;;;;;;83.23;53.10;;;;;;;;;;5053827;28;20025;-59
2024/01/17 01:36:02;;;;;;;85.37;51.73;;;;;;;;;;5053568;28;20087;-58
2024/01/17 01:38:28;;;;;;;86.17;51.67;;;;;;;;;;5053714;28;20025;-59
2024/01/17 01:40:54;;;;;;;90.23;53.23;;;;;;;;;;5053808;28;20106;-59
2024/01/17 01:43:20;;;;;;;90.80;53.73;;;;;;;;;;5053823;28;20501;-58
2024/01/17 01:46:09;;;;;;;89.40;52.70;;;;;;;;;;5052122;28;20033;-59
2024/01/17 01:48:36;;;;;;;86.77;51.90;;;;;;;;;;5037225;28;20118;-59
2024/01/17 01:51:02;;;;;;;83.97;51.97;;;;;;;;;;5033372;28;20040;-59
2024/01/17 01:53:29;;;;;;;85.53;51.73;;;;;;;;;;5033529;28;20022;-60
2024/01/17 01:55:56;;;;;;;90.87;53.17;;;;;;;;;;5043072;28;20033;-58
2024/01/17 01:58:25;;;;;;;90.87;53.33;;;;;;;;;;5053642;28;20032;-59
2024/01/17 02:00:52;;;;;;;85.27;52.50;;;;;;;;;;5047916;28;20032;-59
2024/01/17 02:03:19;;;;;;;86.33;52.33;;;;;;;;;;5033245;28;20407;-57
2024/01/17 02:05:45;;;;;;;87.07;52.80;;;;;;;;;;5044257;28;20106;-59
2024/01/17 02:08:11;;;;;;;87.37;52.87;;;;;;;;;;5051209;28;20524;-59
2024/01/17 02:10:38;;;;;;;88.93;52.27;;;;;;;;;;5050716;28;20559;-57
2024/01/17 02:13:04;;;;;;;85.00;54.00;;;;;;;;;;5050950;28;20466;-59
2024/01/17 02:15:36;;;;;;;84.53;50.53;;;;;;;;;;5052130;28;20032;-59
2024/01/17 02:18:04;;;;;;;84.90;51.20;;;;;;;;;;5051328;28;20124;-59
2024/01/17 02:20:31;;;;;;;80.13;49.20;;;;;;;;;;5050735;28;20017;-57
2024/01/17 02:22:57;;;;;;;77.97;49.50;;;;;;;;;;5051639;28;20041;-59
2024/01/17 02:25:23;;;;;;;81.20;48.97;;;;;;;;;;5050129;28;20061;-60
2024/01/17 02:27:49;;;;;;;76.07;48.83;;;;;;;;;;5051601;28;20467;-59
2024/01/17 02:30:15;;;;;;;77.30;48.10;;;;;;;;;;5051677;28;20044;-58
2024/01/17 02:32:43;;;;;;;79.27;50.83;;;;;;;;;;5051582;28;20040;-59
2024/01/17 02:35:09;;;;;;;78.43;50.77;;;;;;;;;;5051655;28;20044;-57
2024/01/17 02:37:35;;;;;;;79.90;52.60;;;;;;;;;;5050923;28;20081;-56
2024/01/17 02:40:01;;;;;;;77.00;48.97;;;;;;;;;;5051100;28;20465;-59
2024/01/17 02:42:27;;;;;;;79.03;50.03;;;;;;;;;;5036683;28;20144;-59
2024/01/17 02:45:00;;;;;;;80.47;50.90;;;;;;;;;;5038224;28;20108;-58
2024/01/17 02:47:26;;;;;;;77.67;50.53;;;;;;;;;;5034281;28;20486;-59
2024/01/17 02:49:52;;;;;;;83.80;51.57;;;;;;;;;;5051591;28;20170;-59
2024/01/17 02:52:18;;;;;;;80.60;50.27;;;;;;;;;;5051564;28;20052;-58
2024/01/17 02:54:47;;;;;;;85.03;52.90;;;;;;;;;;5051853;28;20025;-59
2024/01/17 02:57:13;;;;;;;75.00;50.00;;;;;;;;;;5051472;28;20095;-59
2024/01/17 02:59:41;;;;;;;82.63;52.13;;;;;;;;;;5032757;28;20033;-58
2024/01/17 03:02:07;;;;;;;80.17;50.50;;;;;;;;;;5029968;28;20136;-59
2024/01/17 03:04:33;;;;;;;79.07;52.37;;;;;;;;;;5035389;28;20124;-59
2024/01/17 03:10:03;;;;;;;85.27;53.67;;;;;;;;;;5032359;28;20122;-59
2024/01/17 03:12:30;;;;;;;86.60;55.17;;;;;;;;;;5031891;28;20386;-60
2024/01/17 03:14:56;;;;;;;83.07;53.67;;;;;;;;;;5042503;28;20044;-59
2024/01/17 03:17:22;;;;;;;83.60;54.83;;;;;;;;;;5049943;28;20383;-56
2024/01/17 03:19:48;;;;;;;84.60;54.70;;;;;;;;;;5050871;28;20032;-57
2024/01/17 03:22:17;;;;;;;83.50;54.83;;;;;;;;;;5050698;28;20029;-58
2024/01/17 03:24:45;;;;;;;81.90;52.17;;;;;;;;;;5049534;28;20051;-58
2024/01/17 03:27:12;;;;;;;84.17;53.00;;;;;;;;;;5050848;28;20488;-58
2024/01/17 03:29:38;;;;;;;85.27;54.73;;;;;;;;;;5050590;28;20464;-58
2024/01/17 03:32:07;;;;;;;81.13;52.97;;;;;;;;;;5050520;28;20029;-57
2024/01/17 03:34:34;;;;;;;81.40;52.60;;;;;;;;;;5050741;28;20061;-57
2024/01/17 03:37:00;;;;;;;79.57;52.37;;;;;;;;;;5050999;28;20553;-57
2024/01/17 03:39:27;;;;;;;85.90;52.33;;;;;;;;;;5050844;28;20120;-56
2024/01/17 03:41:53;;;;;;;83.97;54.20;;;;;;;;;;5050644;28;20033;-58
2024/01/17 03:44:19;;;;;;;84.57;54.77;;;;;;;;;;5048311;28;20036;-58
2024/01/17 03:46:45;;;;;;;86.33;53.23;;;;;;;;;;5030802;28;20371;-58
2024/01/17 03:49:11;;;;;;;82.30;52.77;;;;;;;;;;5029450;28;20052;-58
2024/01/17 03:51:37;;;;;;;76.60;51.93;;;;;;;;;;5030406;28;20037;-59
2024/01/17 03:54:03;;;;;;;83.07;55.23;;;;;;;;;;5038582;28;20048;-58
2024/01/17 03:56:29;;;;;;;83.13;54.10;;;;;;;;;;5051125;28;20022;-59
2024/01/17 03:58:55;;;;;;;79.77;54.23;;;;;;;;;;5050901;28;20076;-59
2024/01/17 04:01:21;;;;;;;84.93;55.00;;;;;;;;;;5050882;28;20100;-58
2024/01/17 04:03:56;;;;;;;80.63;51.67;;;;;;;;;;5050817;28;20390;-58
2024/01/17 04:06:23;;;;;;;83.30;52.57;;;;;;;;;;5050193;28;20025;-59
2024/01/17 04:08:48;;;;;;;87.33;54.37;;;;;;;;;;5048931;28;20028;-58
2024/01/17 04:11:14;;;;;;;81.10;53.30;;;;;;;;;;5048440;28;20356;-58
2024/01/17 04:13:43;;;;;;;88.67;55.80;;;;;;;;;;5047197;28;20029;-60
2024/01/17 04:16:09;;;;;;;80.27;56.67;;;;;;;;;;5049104;28;20480;-58
2024/01/17 04:18:36;;;;;;;83.80;55.33;;;;;;;;;;5049490;28;20028;-59
2024/01/17 04:21:02;;;;;;;85.83;56.87;;;;;;;;;;5048953;28;20035;-59
2024/01/17 04:23:28;;;;;;;86.33;57.87;;;;;;;;;;5048786;28;20029;-59
2024/01/17 04:25:54;;;;;;;80.80;54.90;;;;;;;;;;5032834;28;20025;-59
2024/01/17 04:28:20;;;;;;;83.90;55.10;;;;;;;;;;5034739;28;20416;-57
2024/01/17 04:30:52;;;;;;;84.70;55.83;;;;;;;;;;5050196;28;20032;-59
2024/01/17 04:33:18;;;;;;;80.77;53.27;;;;;;;;;;5053131;28;20033;-59
2024/01/17 04:35:44;;;;;;;80.50;52.80;;;;;;;;;;5053870;28;20021;-59
2024/01/17 04:38:10;;;;;;;77.30;52.00;;;;;;;;;;5050539;28;20474;-59
2024/01/17 04:40:36;;;;;;;77.97;52.97;;;;;;;;;;5034217;28;20116;-57
2024/01/17 04:43:02;;;;;;;78.70;53.70;;;;;;;;;;5034008;28;20034;-58
2024/01/17 04:45:30;;;;;;;83.80;55.27;;;;;;;;;;5052640;28;20114;-59
2024/01/17 04:47:56;;;;;;;85.40;55.97;;;;;;;;;;5054307;28;20033;-58
2024/01/17 04:50:22;;;;;;;85.40;54.40;;;;;;;;;;5054019;28;20029;-59
2024/01/17 04:52:48;;;;;;;83.40;56.00;;;;;;;;;;5053606;28;20036;-58
2024/01/17 04:55:15;;;;;;;84.83;56.37;;;;;;;;;;5053703;28;20424;-58
2024/01/17 04:57:42;;;;;;;88.37;57.17;;;;;;;;;;5053602;28;20033;-58
2024/01/17 05:00:12;;;;;;;84.20;56.53;;;;;;;;;;5053720;28;20025;-58
2024/01/17 05:02:38;;;;;;;86.17;58.20;;;;;;;;;;5053251;28;20474;-58
2024/01/17 05:05:05;;;;;;;89.70;56.70;;;;;;;;;;5053807;28;20064;-58
2024/01/17 05:07:31;;;;;;;94.90;58.80;;;;;;;;;;5052040;28;20437;-58
2024/01/17 05:09:57;;;;;;;89.97;58.87;;;;;;;;;;5053413;28;20104;-59
2024/01/17 05:12:24;;;;;;;86.03;58.77;;;;;;;;;;5037851;28;20025;-57
2024/01/17 05:14:49;;;;;;;85.77;58.57;;;;;;;;;;5044952;28;20025;-59
2024/01/17 05:17:15;;;;;;;86.40;58.43;;;;;;;;;;5051281;28;20036;-58
2024/01/17 05:19:42;;;;;;;91.97;57.90;;;;;;;;;;5052908;28;20035;-58
2024/01/17 05:22:10;;;;;;;90.90;58.33;;;;;;;;;;5052536;28;20025;-59
2024/01/17 05:24:36;;;;;;;90.17;58.77;;;;;;;;;;5053092;28;20032;-59
2024/01/17 05:27:02;;;;;;;85.57;56.93;;;;;;;;;;5052580;28;20482;-59
2024/01/17 05:29:30;;;;;;;90.87;57.73;;;;;;;;;;5052606;28;20076;-59
2024/01/17 05:31:56;;;;;;;91.90;59.37;;;;;;;;;;5051808;28;20091;-58
2024/01/17 05:34:22;;;;;;;93.00;59.53;;;;;;;;;;5052881;28;20029;-59
2024/01/17 05:36:48;;;;;;;90.90;58.53;;;;;;;;;;5052383;28;20092;-59
2024/01/17 05:39:14;;;;;;;89.17;57.30;;;;;;;;;;5050884;28;20032;-59
2024/01/17 05:41:47;;;;;;;89.60;59.00;;;;;;;;;;5051943;28;20139;-58
2024/01/17 05:44:13;;;;;;;90.00;57.77;;;;;;;;;;5051772;28;20033;-59
2024/01/17 05:46:39;;;;;;;94.77;59.47;;;;;;;;;;5052241;28;20037;-58
2024/01/17 05:49:05;;;;;;;89.53;57.50;;;;;;;;;;5052247;28;20029;-59
2024/01/17 05:51:31;;;;;;;93.73;58.63;;;;;;;;;;5050486;28;20149;-58
2024/01/17 05:53:58;;;;;;;92.20;57.20;;;;;;;;;;5051947;28;20124;-58
2024/01/17 05:56:25;;;;;;;85.77;56.73;;;;;;;;;;5051615;28;20153;-59
2024/01/17 05:58:51;;;;;;;86.43;54.97;;;;;;;;;;5051631;28;20032;-59
2024/01/17 06:01:26;;;;;;;86.63;56.93;;;;;;;;;;5051920;28;20040;-57
2024/01/17 06:03:52;;;;;;;88.30;56.53;;;;;;;;;;5051667;28;20398;-58
2024/01/17 06:06:18;;;;;;;90.93;57.97;;;;;;;;;;5050604;28;20060;-60
2024/01/17 06:08:45;;;;;;;88.27;56.97;;;;;;;;;;5051633;28;20033;-58
2024/01/17 06:11:11;;;;;;;88.47;57.30;;;;;;;;;;5050759;28;20032;-58
2024/01/17 06:13:37;;;;;;;95.07;58.87;;;;;;;;;;5049837;28;20516;-60
2024/01/17 06:16:03;;;;;;;90.50;58.30;;;;;;;;;;5049780;28;20029;-60
2024/01/17 06:18:29;;;;;;;90.50;57.33;;;;;;;;;;5047577;28;20051;-58
2024/01/17 06:20:55;;;;;;;89.53;58.30;;;;;;;;;;5049721;28;20021;-59
2024/01/17 06:23:21;;;;;;;88.20;57.43;;;;;;;;;;5050369;28;20067;-59
2024/01/17 06:25:47;;;;;;;89.77;58.00;;;;;;;;;;5047103;28;20101;-59
2024/01/17 06:28:13;;;;;;;94.57;60.80;;;;;;;;;;5029974;28;20466;-59
2024/01/17 06:30:39;;;;;;;86.73;57.07;;;;;;;;;;5031044;28;20073;-59
2024/01/17 06:33:05;;;;;;;92.90;59.07;;;;;;;;;;5049556;28;20082;-60
2024/01/17 06:35:31;;;;;;;97.90;61.47;;;;;;;;;;5048348;28;20037;-59
2024/01/17 06:37:57;;;;;;;93.73;58.70;;;;;;;;;;5048807;28;20025;-56
2024/01/17 06:40:26;;;;;;;93.60;58.67;;;;;;;;;;5049706;28;20037;-56
2024/01/17 06:42:52;;;;;;;95.30;58.93;;;;;;;;;;5048906;28;20047;-57
2024/01/17 06:45:18;;;;;;;91.90;60.80;;;;;;;;;;5049414;28;20025;-56
2024/01/17 06:47:44;;;;;;;94.93;62.83;;;;;;;;;;5049773;28;20025;-57
2024/01/17 06:50:14;;;;;;;92.43;61.07;;;;;;;;;;5048750;28;20048;-59
2024/01/17 06:52:40;;;;;;;93.43;60.53;;;;;;;;;;5049806;28;20033;-57
2024/01/17 06:55:06;;;;;;;86.07;57.57;;;;;;;;;;5049784;28;20036;-57
2024/01/17 06:57:32;;;;;;;92.37;60.77;;;;;;;;;;5050225;28;20076;-58
2024/01/17 06:59:58;;;;;;;92.57;60.90;;;;;;;;;;5049510;28;20032;-58
2024/01/17 07:02:24;;;;;;;92.50;58.67;;;;;;;;;;5048145;28;20029;-57
2024/01/17 07:04:51;;;;;;;100.23;62.80;;;;;;;;;;5048888;28;20482;-57
2024/01/17 07:07:17;;;;;;;94.70;61.70;;;;;;;;;;5049986;28;20187;-54
2024/01/17 07:09:43;;;;;;;94.77;59.90;;;;;;;;;;5049104;28;20032;-59
2024/01/17 07:12:09;;;;;;;94.87;60.10;;;;;;;;;;5048744;28;20029;-57
2024/01/17 07:14:35;;;;;;;94.27;60.60;;;;;;;;;;5048147;28;20753;-58
2024/01/17 07:17:01;;;;;;;93.37;59.73;;;;;;;;;;5049098;28;20037;-58
2024/01/17 07:19:27;;;;;;;94.37;58.53;;;;;;;;;;5049314;28;20033;-58
2024/01/17 07:21:54;;;;;;;91.27;58.63;;;;;;;;;;5048730;28;20116;-59
2024/01/17 07:24:20;;;;;;;92.03;60.57;;;;;;;;;;5048406;28;20033;-56
2024/01/17 07:26:47;;;;;;;94.50;58.80;;;;;;;;;;5051377;28;20074;-58
2024/01/17 07:29:13;;;;;;;89.50;59.30;;;;;;;;;;5051384;28;20119;-59
2024/01/17 07:31:39;;;;;;;88.40;56.63;;;;;;;;;;5049771;28;20104;-58
2024/01/17 07:34:05;;;;;;;88.07;58.13;;;;;;;;;;5050938;28;20033;-59
2024/01/17 07:36:31;;;;;;;91.67;57.70;;;;;;;;;;5051425;28;20463;-57
2024/01/17 07:38:57;;;;;;;91.33;56.50;;;;;;;;;;5051288;28;20048;-58
2024/01/17 07:41:23;;;;;;;87.00;56.57;;;;;;;;;;5050969;28;20056;-58
2024/01/17 07:43:49;;;;;;;92.13;57.47;;;;;;;;;;5051732;28;20043;-59
2024/01/17 07:46:16;;;;;;;84.90;56.07;;;;;;;;;;5051839;28;20123;-56
2024/01/17 07:48:42;;;;;;;89.73;57.23;;;;;;;;;;5057182;28;20039;-57
2024/01/17 07:51:08;;;;;;;92.53;60.07;;;;;;;;;;5061664;28;20036;-56
2024/01/17 07:53:35;;;;;;;91.47;58.23;;;;;;;;;;5070415;28;20029;-57
2024/01/17 07:56:01;;;;;;;83.47;54.10;;;;;;;;;;5051752;28;20025;-57
2024/01/17 07:58:27;;;;;;;90.13;57.37;;;;;;;;;;5049584;28;20494;-63
2024/01/17 08:00:54;;;;;;;87.73;57.63;;;;;;;;;;5050869;28;20089;-64
2024/01/17 08:03:44;;;;;;;83.77;54.67;;;;;;;;;;5050028;28;20036;-65
2024/01/17 08:06:10;;;;;;;81.70;55.47;;;;;;;;;;5051252;28;20036;-63
2024/01/17 08:08:36;;;;;;;85.20;57.60;;;;;;;;;;5054916;28;20025;-67
2024/01/17 08:11:04;;;;;;;90.27;59.50;;;;;;;;;;5055418;28;20402;-66
2024/01/17 08:13:30;;;;;;;89.20;58.80;;;;;;;;;;5054596;28;20497;-68
2024/01/17 08:15:56;;;;;;;87.17;58.50;;;;;;;;;;5054837;28;20033;-67
2024/01/17 08:18:23;;;;;;;87.00;57.47;;;;;;;;;;5054623;28;20431;-66
2024/01/17 08:20:49;;;;;;;87.87;57.27;;;;;;;;;;5054069;28;20028;-72
2024/01/17 08:23:15;;;;;;;89.50;59.17;;;;;;;;;;5055065;28;20558;-74
2024/01/17 08:25:41;;;;;;;84.03;56.23;;;;;;;;;;5051634;28;20063;-62
2024/01/17 08:28:07;;;;;;;87.53;58.57;;;;;;;;;;5054765;28;20033;-68
2024/01/17 08:30:33;;;;;;;89.60;57.80;;;;;;;;;;5053170;28;20025;-69
2024/01/17 08:32:59;;;;;;;84.70;56.23;;;;;;;;;;5055429;28;20120;-71
2024/01/17 08:35:25;;;;;;;86.93;57.93;;;;;;;;;;5051779;28;20025;-66
2024/01/17 08:37:51;;;;;;;90.73;58.73;;;;;;;;;;5054264;28;20112;-70
2024/01/17 08:40:17;;;;;;;86.27;56.07;;;;;;;;;;5052080;28;20116;-68
2024/01/17 08:42:47;;;;;;;88.93;59.10;;;;;;;;;;5054002;28;20120;-69
2024/01/17 08:45:14;;;;;;;88.37;57.23;;;;;;;;;;5053287;28;20120;-60
2024/01/17 08:47:42;;;;;;;85.60;56.33;;;;;;;;;;5054527;28;20100;-61
2024/01/17 08:50:08;;;;;;;68.60;46.23;;;;;;;;;;5054341;28;20036;-65
2024/01/17 08:52:34;;;;;;;69.17;46.73;;;;;;;;;;5052444;28;20108;-62
2024/01/17 08:55:02;;;;;;;68.47;46.13;;;;;;;;;;5054624;28;20119;-68
2024/01/17 08:57:28;;;;;;;70.67;45.30;;;;;;;;;;5053988;28;20044;-69
2024/01/17 08:59:54;;;;;;;73.70;47.77;;;;;;;;;;5042974;28;20437;-70
2024/01/17 09:02:20;;;;;;;69.90;46.70;;;;;;;;;;5053486;28;20033;-61
2024/01/17 09:04:46;;;;;;;65.63;44.37;;;;;;;;;;5054362;28;20032;-66
2024/01/17 09:07:12;;;;;;;67.57;47.23;;;;;;;;;;5052398;28;20394;-64
2024/01/17 09:09:38;;;;;;;72.13;46.47;;;;;;;;;;5053233;28;20039;-68
2024/01/17 09:12:08;;;;;;;67.43;46.07;;;;;;;;;;5052935;28;20480;-67
2024/01/17 09:14:34;;;;;;;64.13;43.70;;;;;;;;;;5050615;28;20135;-66
2024/01/17 09:17:03;;;;;;;68.03;44.17;;;;;;;;;;5052690;28;20383;-71
2024/01/17 09:19:29;;;;;;;68.67;44.30;;;;;;;;;;5051670;28;20102;-67
2024/01/17 09:21:55;;;;;;;65.37;42.70;;;;;;;;;;5052882;28;20087;-53
2024/01/17 09:24:21;;;;;;;68.67;44.90;;;;;;;;;;5051147;28;20045;-51
2024/01/17 09:26:49;;;;;;;64.70;43.87;;;;;;;;;;5051104;28;20057;-50
2024/01/17 09:29:16;;;;;;;66.03;43.20;;;;;;;;;;5050813;28;20465;-51
2024/01/17 09:31:42;;;;;;;70.93;46.53;;;;;;;;;;5049742;28;20056;-48
2024/01/17 09:34:08;;;;;;;58.87;39.27;;;;;;;;;;5050910;28;20020;-49
2024/01/17 09:36:34;;;;;;;54.73;37.43;;;;;;;;;;5051342;28;20064;-64
2024/01/17 09:39:00;;;;;;;58.47;38.77;;;;;;;;;;5049923;28;20032;-67
2024/01/17 09:41:26;;;;;;;53.33;37.63;;;;;;;;;;5053634;28;20037;-62
2024/01/17 09:43:52;;;;;;;50.30;33.83;;;;;;;;;;5054366;28;20040;-66
2024/01/17 09:46:18;;;;;;;44.33;30.07;;;;;;;;;;5053825;28;20028;-69
2024/01/17 09:48:44;;;;;;;46.70;28.77;;;;;;;;;;5053963;28;20029;-62
2024/01/17 09:51:15;;;;;;;44.43;27.40;;;;;;;;;;5053624;28;20025;-64
2024/01/17 09:53:44;;;;;;;40.93;28.03;;;;;;;;;;5053613;28;20035;-70
2024/01/17 09:56:11;;;;;;;49.93;34.27;;;;;;;;;;5053828;28;20029;-64
2024/01/17 09:58:38;;;;;;;47.67;32.90;;;;;;;;;;5053287;28;20138;-72
2024/01/17 10:01:05;;;;;;;53.07;34.00;;;;;;;;;;5047967;28;20033;-70
2024/01/17 10:03:31;;;;;;;49.27;33.93;;;;;;;;;;5051848;28;20045;-62
2024/01/17 10:05:57;;;;;;;46.73;31.23;;;;;;;;;;5046096;28;20025;-63
2024/01/17 10:08:24;;;;;;;49.13;33.40;;;;;;;;;;5048720;28;20044;-63
2024/01/17 10:10:50;;;;;;;46.17;33.67;;;;;;;;;;5051368;28;20078;-60
2024/01/17 10:13:16;;;;;;;50.17;32.60;;;;;;;;;;5050965;28;20120;-65
2024/01/17 10:15:44;;;;;;;45.00;31.57;;;;;;;;;;5050575;28;20029;-56
2024/01/17 10:18:11;;;;;;;45.83;31.80;;;;;;;;;;5049405;28;20033;-60
2024/01/17 10:20:37;;;;;;;41.57;30.23;;;;;;;;;;5049213;28;20383;-71
2024/01/17 10:23:07;;;;;;;41.70;28.33;;;;;;;;;;5046490;28;20057;-71
2024/01/17 10:25:42;;;;;;;40.90;28.67;;;;;;;;;;5038017;28;20040;-66
2024/01/17 10:28:11;;;;;;;38.83;28.17;;;;;;;;;;5034911;28;20065;-64
2024/01/17 10:30:39;;;;;;;39.60;27.63;;;;;;;;;;5040164;28;20071;-66
2024/01/17 10:33:07;;;;;;;38.43;28.83;;;;;;;;;;5048674;28;20037;-66
2024/01/17 10:35:34;;;;;;;38.20;27.30;;;;;;;;;;5031144;28;20033;-58
2024/01/17 10:38:00;;;;;;;40.87;27.17;;;;;;;;;;5031123;28;20068;-60
2024/01/17 10:40:26;;;;;;;45.07;28.03;;;;;;;;;;5031394;28;20099;-62
2024/01/17 10:43:04;;;;;;;36.07;25.50;;;;;;;;;;5032181;28;20041;-62
2024/01/17 10:45:50;;;;;;;39.23;28.17;;;;;;;;;;5031316;28;20028;-61
2024/01/17 10:48:16;;;;;;;37.57;26.57;;;;;;;;;;5032915;28;20032;-56
2024/01/17 10:50:44;;;;;;;42.07;29.00;;;;;;;;;;5051626;28;20108;-67
2024/01/17 10:53:10;;;;;;;41.57;29.40;;;;;;;;;;5052341;28;20021;-69
2024/01/17 10:55:37;;;;;;;44.03;29.67;;;;;;;;;;5052601;28;20064;-65
2024/01/17 10:58:14;;;;;;;42.70;29.33;;;;;;;;;;5052546;28;20024;-63
2024/01/17 11:00:48;;;;;;;41.67;27.23;;;;;;;;;;5052378;28;20021;-65
2024/01/17 11:03:18;;;;;;;45.90;30.47;;;;;;;;;;5052098;28;20037;-61
2024/01/17 11:05:50;;;;;;;46.40;30.43;;;;;;;;;;5050637;28;20067;-61
2024/01/17 11:08:18;;;;;;;43.00;30.93;;;;;;;;;;5052196;28;20038;-64
2024/01/17 11:10:45;;;;;;;45.33;30.03;;;;;;;;;;5047438;28;20394;-60
2024/01/17 11:13:12;;;;;;;44.93;31.07;;;;;;;;;;5030350;28;20048;-63
2024/01/17 11:15:40;;;;;;;42.97;31.80;;;;;;;;;;5030033;28;20554;-63
2024/01/17 11:18:18;;;;;;;40.70;27.40;;;;;;;;;;5030039;28;20075;-69
2024/01/17 11:20:44;;;;;;;37.40;27.80;;;;;;;;;;5030274;28;20025;-64
2024/01/17 11:23:32;;;;;;;38.33;27.27;;;;;;;;;;5029298;28;20102;-61
2024/01/17 11:26:05;;;;;;;42.20;27.77;;;;;;;;;;5029717;28;20029;-61
2024/01/17 11:28:39;;;;;;;43.03;29.07;;;;;;;;;;5029619;28;20718;-68
2024/01/17 11:31:12;;;;;;;45.22;30.25;;;;;;;;;;5029816;28;20036;-63
2024/01/17 11:33:39;;;;;;;39.10;28.10;;;;;;;;;;5037291;28;20067;-61
2024/01/17 11:36:37;;;;;;;41.60;28.60;;;;;;;;;;5050051;28;20420;-60
2024/01/17 11:39:05;;;;;;;38.27;27.43;;;;;;;;;;5047500;28;20390;-55
2024/01/17 11:41:33;;;;;;;40.67;28.57;;;;;;;;;;5052353;28;20797;-60
2024/01/17 11:43:59;;;;;;;47.00;30.07;;;;;;;;;;5053932;28;20051;-60
2024/01/17 11:46:25;;;;;;;45.30;31.10;;;;;;;;;;5053709;28;20036;-61
2024/01/17 11:48:53;;;;;;;45.13;31.00;;;;;;;;;;5054156;28;20021;-60
2024/01/17 11:51:21;;;;;;;46.23;32.13;;;;;;;;;;5053417;28;20227;-60
2024/01/17 11:53:51;;;;;;;50.50;33.73;;;;;;;;;;5045403;28;20037;-60
2024/01/17 11:56:20;;;;;;;52.97;34.50;;;;;;;;;;5035892;28;20452;-57
2024/01/17 11:58:53;;;;;;;50.53;33.83;;;;;;;;;;5032537;28;20034;-57
2024/01/17 12:01:19;;;;;;;53.07;33.73;;;;;;;;;;5032894;28;20405;-51
2024/01/17 12:03:46;;;;;;;46.37;32.40;;;;;;;;;;5041728;28;20064;-69
2024/01/17 12:06:12;;;;;;;47.23;32.80;;;;;;;;;;5043677;28;20078;-70
2024/01/17 12:08:48;;;;;;;50.73;34.40;;;;;;;;;;5053863;28;20040;-70
2024/01/17 12:11:14;;;;;;;47.90;31.63;;;;;;;;;;5035260;28;20048;-71
2024/01/17 12:13:41;;;;;;;40.23;28.97;;;;;;;;;;5037263;28;20017;-70
2024/01/17 12:16:11;;;;;;;45.30;30.60;;;;;;;;;;5054544;28;20028;-70
2024/01/17 12:18:37;;;;;;;40.03;29.10;;;;;;;;;;5056054;28;20070;-70
2024/01/17 12:21:04;;;;;;;41.07;28.83;;;;;;;;;;5055647;28;20143;-70
2024/01/17 12:23:31;;;;;;;43.77;30.30;;;;;;;;;;5055473;28;20033;-69
2024/01/17 12:25:58;;;;;;;38.57;27.23;;;;;;;;;;5055863;28;20029;-69
2024/01/17 12:28:33;;;;;;;34.87;24.80;;;;;;;;;;5056611;28;20053;-69
2024/01/17 12:31:01;;;;;;;38.07;27.27;;;;;;;;;;5054733;28;20470;-69
2024/01/17 12:33:28;;;;;;;35.83;27.20;;;;;;;;;;5053553;28;20056;-69
2024/01/17 12:35:54;;;;;;;35.70;25.43;;;;;;;;;;5057322;28;20041;-70
2024/01/17 12:38:20;;;;;;;37.97;28.27;;;;;;;;;;5053936;28;20363;-69
2024/01/17 12:40:50;;;;;;;32.57;22.90;;;;;;;;;;5053934;28;20035;-69
2024/01/17 12:43:20;;;;;;;33.90;23.27;;;;;;;;;;5055432;28;20120;-70
2024/01/17 12:45:47;;;;;;;34.83;24.37;;;;;;;;;;5054950;28;20121;-69
2024/01/17 12:48:14;;;;;;;34.43;26.30;;;;;;;;;;5054806;28;20359;-71
2024/01/17 12:50:48;;;;;;;34.63;25.13;;;;;;;;;;5052870;28;20102;-70
2024/01/17 12:53:16;;;;;;;38.53;27.23;;;;;;;;;;5053806;28;20017;-70
2024/01/17 12:55:42;;;;;;;44.47;30.57;;;;;;;;;;5053866;28;20539;-70
2024/01/17 12:58:11;;;;;;;38.83;28.57;;;;;;;;;;5054409;28;20070;-61
2024/01/17 13:00:37;;;;;;;45.27;30.53;;;;;;;;;;5052983;28;20024;-61
2024/01/17 13:03:03;;;;;;;39.27;27.67;;;;;;;;;;5053624;28;20056;-64
2024/01/17 13:05:29;;;;;;;41.97;28.63;;;;;;;;;;5052737;28;20108;-61
2024/01/17 13:08:06;;;;;;;38.03;27.17;;;;;;;;;;5049652;28;20021;-61
2024/01/17 13:10:33;;;;;;;40.67;26.07;;;;;;;;;;5049092;28;20028;-61
2024/01/17 13:12:59;;;;;;;33.70;24.93;;;;;;;;;;5049325;28;20079;-61
2024/01/17 13:15:25;;;;;;;37.07;25.43;;;;;;;;;;5044964;28;20033;-61
2024/01/17 13:17:56;;;;;;;36.57;25.73;;;;;;;;;;5049109;28;21398;-72
2024/01/17 13:20:22;;;;;;;33.77;25.73;;;;;;;;;;5048110;28;20035;-64
2024/01/17 13:22:49;;;;;;;37.17;26.77;;;;;;;;;;5042525;28;20391;-64
2024/01/17 13:25:20;;;;;;;29.37;22.30;;;;;;;;;;5048422;28;20037;-60
2024/01/17 13:27:46;;;;;;;31.37;22.10;;;;;;;;;;5046384;28;20027;-59
2024/01/17 13:30:13;;;;;;;28.97;20.97;;;;;;;;;;5051388;28;20461;-55
2024/01/17 13:32:39;;;;;;;24.70;17.60;;;;;;;;;;5047201;28;20017;-53
2024/01/17 13:35:05;;;;;;;26.60;19.20;;;;;;;;;;5050491;28;20112;-53
2024/01/17 13:37:31;;;;;;;26.43;20.30;;;;;;;;;;5053048;28;20036;-53
2024/01/17 13:39:58;;;;;;;26.77;19.67;;;;;;;;;;5049605;28;20025;-54
2024/01/17 13:42:23;;;;;;;25.77;19.23;;;;;;;;;;5050874;28;20060;-58
2024/01/17 13:44:50;;;;;;;31.30;21.23;;;;;;;;;;5024188;28;20068;-56
2024/01/17 13:47:16;;;;;;;27.37;20.57;;;;;;;;;;5050861;28;20079;-50
2024/01/17 13:49:44;;;;;;;29.87;19.73;;;;;;;;;;5050382;28;20063;-60
2024/01/17 13:52:14;;;;;;;28.10;21.67;;;;;;;;;;5047772;28;20024;-51
2024/01/17 13:54:40;;;;;;;34.37;21.67;;;;;;;;;;5050431;28;20032;-51
2024/01/17 13:57:06;;;;;;;28.63;22.87;;;;;;;;;;5052232;28;20378;-58
2024/01/17 13:59:32;;;;;;;31.33;22.83;;;;;;;;;;5057321;28;20051;-54
2024/01/17 14:02:01;;;;;;;29.53;21.63;;;;;;;;;;5039022;28;20455;-56
2024/01/17 14:04:27;;;;;;;26.00;20.30;;;;;;;;;;5045454;28;20033;-65
2024/01/17 14:06:53;;;;;;;27.30;19.90;;;;;;;;;;5045297;28;20033;-68
2024/01/17 14:09:23;;;;;;;27.67;20.17;;;;;;;;;;5049149;28;20498;-66
2024/01/17 14:11:50;;;;;;;28.23;21.27;;;;;;;;;;5048634;28;20046;-65
2024/01/17 14:14:16;;;;;;;26.60;18.83;;;;;;;;;;5043277;28;20029;-63
2024/01/17 14:16:42;;;;;;;26.83;20.37;;;;;;;;;;5045361;28;20170;-61
2024/01/17 14:19:09;;;;;;;27.70;19.60;;;;;;;;;;5041024;28;20078;-61